Scroll down
FLIGHT INFORMATION
Southwest Airlines

SWA815

At Arrival Gate

KMDW
 KLGA
DATE: 2021-03-21
GATE: G6
GATE DEPARTURE: 21:15
TAKEOFF: 21:22
DATE: 2021-03-21
GATE: A4
LANDING: 23:04
GATE ARRIVAL: 23:14
FLIGHT DATA
Crew: 
Speed: 
463 kts
Altitude: 
39,007 ft
Stage Length: 
628.5 nm
Block Time: 
1.9 hrs
Flight Time: 
1.7 hrs
Fuel Used: 
9,055 lb
Cleared Route: KMDW LEWKE GIJ PLAIN GERBS IDEAS WOOST CXR14 CXR TEESY MIGET WEVEL ETG KLGA
TRACK DATA
50,000 ft 1,000 kts
AIRCRAFT INFO AND CUMULATIVE STATS
Aircraft Type: 
B737BW
Registration: 
SELCAL: 
MSN/LN: 
34450 / 1831
Operator: 
Total Flights: 
2
Total Block Time: 
4 hrs
Total Flight Time: 
3.6 hrs
Total Fuel Used: 
19,301 lb
DATALINK LOG | Newest first | Current as of: 2022-10-04 19:40:27
LABEL SEQUENCE CONTENT Dn/Up
5Z254021 MAR 21 23:26:16z / FLT DECK GOOD / ACF POS GOOD / GRND SERVICES GOOD / MAINT GOOD▼ Dn
QD132823:14 7.3▼ Dn
QC031823:04▼ Dn
GA3663GATE A4▲ Up
GR3652KLGA 23:04 MAAS 01 YP/UM 00/00 WCHR/S/C 04/00/01 HI-VAL NO DIPL/VIP NO▼ Dn
2U1932KLGA 212151Z 19008KT 10SM FEW250 14/M08 A3049 RMK AO2 SLP323 T01391078▲ Up
2S1736KLGA▼ Dn
QB214321:22▼ Dn
QA143721:15 16.5▼ Dn
2U0146KMDW 211953Z 18010G26KT 10SM SCT250 18/M06 A3022 RMK AO2 PK WND 16026/1948 SLP235 T01831061▲ Up
2S5923KMDW▼ Dn
A35014CLEARED TO KLGA VIA LEWKE GIJ J146 ETG MIP4. SQUAWK 0720.▲ Up
B35013KMDW KLGA SWA815 N227WN ▼ Dn
A34720CLEARED TO KLGA VIA LEWKE GIJ J146 ETG MIP4. SQUAWK 1736.▲ Up
Q04610[LINK ACK]▲ Up
Q04610[LINK TEST]▼ Dn


AIRCRAFT HISTORY
FLIGHT DATE FLIGHT NO. ORIGIN DESTINATION CLEARED ROUTE BLOCK TIME FLIGHT TIME FUEL USED PILOT
2021-03-21SWA815KMDW KLGA KMDW LEWKE GIJ PLAIN GERBS IDEAS WOOST CXR14 CXR TEESY MIGET WEVEL ETG KLGA1.9 hrs1.7 hrs9,055 lbJames W.
2021-01-07SWA2201KLGA KMDW KLGA NEWEL GYNTS DANNR FORTT DOOTH PSB MIDST TYSUN HAGUD CANCR DJB JERRI MAYZE NAPOL ASHEN BAGEL KMDW2.1 hrs1.9 hrs10,247 lbRoberto Stopnicki